Time;durP1;ratioP1;P1;durP2;ratioP2;P2;SDS_P1;SDS_P2;PMS_P1;PMS_P2;Temp;Humidity;BMP_temperature;BMP_pressure;BME280_temperature;BME280_humidity;BME280_pressure;Samples;Min_cycle;Max_cycle;Signal;HPM_P1;HPM_P2
2023/06/01 00:01:58;;;;;;;12.80;2.80;;;;;;;18.97;100.00;100886.80;107198;1282;58249;-84
2023/06/01 00:04:23;;;;;;;8.10;3.40;;;;;;;18.95;100.00;100885.95;106840;1281;58388;-84
2023/06/01 00:06:49;;;;;;;10.50;3.00;;;;;;;18.95;100.00;100885.17;107215;1282;58148;-84
2023/06/01 00:09:15;;;;;;;12.90;3.30;;;;;;;18.93;100.00;100889.77;107211;1282;58316;-85
2023/06/01 00:11:40;;;;;;;6.90;2.90;;;;;;;18.84;100.00;100890.19;107162;1281;62812;-84
2023/06/01 00:14:06;;;;;;;9.50;3.30;;;;;;;18.89;100.00;100897.12;107205;1281;58295;-83
2023/06/01 00:16:32;;;;;;;13.10;3.10;;;;;;;18.87;100.00;100896.93;106874;1281;58237;-83
2023/06/01 00:19:00;;;;;;;11.60;3.20;;;;;;;18.85;100.00;100899.32;107223;1282;58214;-84
2023/06/01 00:21:26;;;;;;;7.00;2.70;;;;;;;18.81;100.00;100902.52;107162;1282;58517;-83
2023/06/01 00:23:52;;;;;;;8.10;3.20;;;;;;;18.78;100.00;100899.20;107169;1282;58165;-83
2023/06/01 00:26:18;;;;;;;6.50;3.20;;;;;;;18.79;100.00;100898.30;107215;1281;58629;-84
2023/06/01 00:28:43;;;;;;;16.70;3.30;;;;;;;18.78;100.00;100897.94;107171;1282;58267;-84
2023/06/01 00:31:08;;;;;;;9.50;2.80;;;;;;;18.79;100.00;100895.80;107187;1283;58503;-84
2023/06/01 00:33:34;;;;;;;10.10;3.20;;;;;;;18.77;100.00;100897.27;107183;1282;62728;-84
2023/06/01 00:35:59;;;;;;;9.30;3.00;;;;;;;18.77;100.00;100896.30;107229;1282;58309;-84
2023/06/01 00:38:25;;;;;;;9.40;3.40;;;;;;;18.72;100.00;100896.91;107236;1282;58156;-85
2023/06/01 00:40:51;;;;;;;9.10;3.30;;;;;;;18.71;100.00;100897.27;107181;1282;58318;-84
2023/06/01 00:43:17;;;;;;;9.10;3.10;;;;;;;18.67;100.00;100901.05;106782;1281;58309;-84
2023/06/01 00:45:43;;;;;;;9.40;3.00;;;;;;;18.63;100.00;100902.67;107057;1282;61393;-84
2023/06/01 00:48:09;;;;;;;7.40;2.80;;;;;;;18.60;100.00;100904.59;107197;1282;58423;-84
2023/06/01 00:50:35;;;;;;;6.50;2.70;;;;;;;18.52;100.00;100906.23;106829;1283;58267;-84
2023/06/01 00:53:05;;;;;;;10.70;3.20;;;;;;;18.46;100.00;100904.95;107131;1282;58341;-83
2023/06/01 00:55:31;;;;;;;11.00;3.10;;;;;;;18.41;100.00;100907.01;107136;1282;62614;-83
2023/06/01 00:57:57;;;;;;;8.50;3.20;;;;;;;18.36;100.00;100907.27;107178;1282;58243;-83
2023/06/01 01:00:26;;;;;;;6.90;2.70;;;;;;;18.31;100.00;100907.48;107201;1281;58219;-84
2023/06/01 01:02:52;;;;;;;9.20;3.00;;;;;;;18.21;100.00;100905.84;107141;1282;74561;-84
2023/06/01 01:05:19;;;;;;;11.00;3.20;;;;;;;18.18;100.00;100903.77;106938;1281;58346;-84
2023/06/01 01:08:06;;;;;;;7.40;2.70;;;;;;;18.14;100.00;100901.23;106780;1282;58576;-84
2023/06/01 01:10:50;;;;;;;9.50;2.90;;;;;;;18.13;100.00;100908.45;107143;1282;60975;-84
2023/06/01 01:13:35;;;;;;;6.50;2.90;;;;;;;18.08;100.00;100911.17;106865;1282;73239;-85
2023/06/01 01:16:08;;;;;;;11.40;3.20;;;;;;;18.06;100.00;100914.91;107166;1282;74181;-84
2023/06/01 01:18:40;;;;;;;;;;;;;;;18.04;100.00;100919.49;107174;1281;73616;-84
2023/06/01 01:21:22;;;;;;;10.00;3.00;;;;;;;17.98;100.00;100920.59;107162;1282;61882;-84
2023/06/01 01:24:11;;;;;;;11.00;3.00;;;;;;;17.94;100.00;100922.66;106876;1282;58865;-84
2023/06/01 01:26:53;;;;;;;8.40;3.10;;;;;;;17.90;100.00;100923.84;107194;1282;73796;-84
2023/06/01 01:29:23;;;;;;;9.70;2.90;;;;;;;17.84;100.00;100926.40;106850;1283;73901;-84
2023/06/01 01:31:50;;;;;;;10.20;3.00;;;;;;;17.80;100.00;100924.89;107024;1281;71470;-84
2023/06/01 01:34:18;;;;;;;11.20;3.40;;;;;;;17.79;100.00;100924.85;107130;1282;63017;-85
2023/06/01 01:36:44;;;;;;;8.70;3.30;;;;;;;17.77;100.00;100926.35;107119;1282;60192;-85
2023/06/01 01:39:09;;;;;;;8.60;3.00;;;;;;;17.73;100.00;100925.80;106894;1282;58348;-84
2023/06/01 01:41:35;;;;;;;8.60;3.00;;;;;;;17.68;100.00;100931.77;107180;1282;58280;-84
2023/06/01 01:44:02;;;;;;;8.20;3.20;;;;;;;17.65;100.00;100930.41;106841;1282;58353;-83
2023/06/01 01:46:51;;;;;;;7.80;2.80;;;;;;;17.61;100.00;100931.40;107200;1282;58210;-83
2023/06/01 01:49:48;;;;;;;7.60;2.50;;;;;;;17.59;100.00;100934.42;107178;1282;60952;-84
2023/06/01 01:52:25;;;;;;;11.30;2.90;;;;;;;17.54;100.00;100934.09;107159;1282;73768;-84
2023/06/01 01:54:52;;;;;;;7.10;2.90;;;;;;;17.54;100.00;100942.48;107193;1282;73222;-84
2023/06/01 01:57:18;;;;;;;11.40;2.80;;;;;;;17.48;100.00;100945.19;107108;1282;72341;-84
2023/06/01 01:59:46;;;;;;;7.10;2.70;;;;;;;17.44;100.00;100946.19;107152;1282;58226;-85
2023/06/01 02:02:12;;;;;;;11.00;3.00;;;;;;;17.38;100.00;100949.00;107158;1282;59967;-84
2023/06/01 02:04:41;;;;;;;10.60;2.90;;;;;;;17.39;100.00;100949.47;107187;1282;58231;-83
2023/06/01 02:07:07;;;;;;;17.80;3.00;;;;;;;17.42;100.00;100950.96;107176;1282;74137;-84
2023/06/01 02:09:33;;;;;;;7.80;3.10;;;;;;;17.44;100.00;100951.57;107159;1282;58278;-84
2023/06/01 02:11:59;;;;;;;8.80;2.70;;;;;;;17.43;100.00;100955.55;106857;1281;59128;-84
2023/06/01 02:14:25;;;;;;;11.20;3.50;;;;;;;17.41;100.00;100953.37;107166;1282;58261;-84
2023/06/01 02:16:50;;;;;;;6.80;3.10;;;;;;;17.40;100.00;100953.05;107199;1281;58297;-84
2023/06/01 02:19:16;;;;;;;11.30;2.60;;;;;;;17.37;100.00;100951.64;107172;1282;58333;-85
2023/06/01 02:21:45;;;;;;;9.60;2.70;;;;;;;17.38;100.00;100954.30;107162;1282;62947;-84
2023/06/01 02:24:11;;;;;;;11.00;3.10;;;;;;;17.36;100.00;100952.35;107146;1282;59936;-83
2023/06/01 02:26:36;;;;;;;9.70;2.80;;;;;;;17.35;100.00;100951.67;107074;1282;58594;-84
2023/06/01 02:29:04;;;;;;;8.40;2.30;;;;;;;17.32;100.00;100953.71;107147;1282;58558;-84
2023/06/01 02:31:33;;;;;;;8.90;2.70;;;;;;;17.31;100.00;100955.52;106729;1283;71752;-83
2023/06/01 02:33:59;;;;;;;8.20;2.90;;;;;;;17.31;100.00;100950.14;107135;1281;61867;-84
2023/06/01 02:36:26;;;;;;;8.90;3.00;;;;;;;17.29;100.00;100951.39;106980;1282;322625;-84
2023/06/01 02:38:52;;;;;;;9.40;2.80;;;;;;;17.27;100.00;100951.24;107178;1282;58199;-84
2023/06/01 02:41:17;;;;;;;8.60;3.20;;;;;;;17.28;100.00;100952.92;106915;1283;58320;-84
2023/06/01 02:43:43;;;;;;;7.80;3.10;;;;;;;17.34;100.00;100952.21;107169;1281;58675;-83
2023/06/01 02:46:08;;;;;;;6.50;2.80;;;;;;;17.44;100.00;100947.04;106821;1283;58693;-84
2023/06/01 02:48:34;;;;;;;8.90;2.80;;;;;;;17.68;100.00;100948.24;107253;1281;58245;-84
2023/06/01 02:51:00;;;;;;;8.10;3.00;;;;;;;17.88;100.00;100947.59;106845;1282;74347;-85
2023/06/01 02:53:28;;;;;;;5.40;2.50;;;;;;;17.93;100.00;100950.29;106829;1283;58512;-85
2023/06/01 02:55:54;;;;;;;7.20;2.40;;;;;;;18.01;100.00;100953.63;107115;1281;61320;-84
2023/06/01 02:58:20;;;;;;;8.20;3.00;;;;;;;18.02;100.00;100952.73;107152;1282;58211;-84
2023/06/01 03:00:46;;;;;;;11.00;2.80;;;;;;;18.01;100.00;100953.85;107198;1282;58249;-83
2023/06/01 03:03:12;;;;;;;8.30;2.90;;;;;;;18.01;100.00;100951.57;107194;1282;58415;-83
2023/06/01 03:05:38;;;;;;;7.90;3.00;;;;;;;18.02;100.00;100951.36;106806;1283;58635;-84
2023/06/01 03:08:06;;;;;;;6.50;2.80;;;;;;;18.04;100.00;100948.44;107182;1282;58341;-83
2023/06/01 03:10:32;;;;;;;10.00;2.60;;;;;;;18.08;100.00;100950.52;107186;1282;58152;-84
2023/06/01 03:12:57;;;;;;;6.80;2.40;;;;;;;18.05;100.00;100949.66;107198;1282;58489;-84
2023/06/01 03:15:23;;;;;;;6.00;2.30;;;;;;;18.05;100.00;100957.11;107211;1282;58602;-83
2023/06/01 03:17:48;;;;;;;10.30;2.90;;;;;;;18.04;100.00;100957.94;106823;1282;58336;-84
2023/06/01 03:20:14;;;;;;;8.80;2.40;;;;;;;18.04;100.00;100955.59;107149;1282;58269;-84
2023/06/01 03:22:46;;;;;;;6.10;2.50;;;;;;;18.10;100.00;100953.40;107250;1282;58420;-83
2023/06/01 03:25:12;;;;;;;12.50;3.90;;;;;;;18.26;100.00;100956.48;107157;1282;74201;-84
2023/06/01 03:27:39;;;;;;;8.50;2.40;;;;;;;18.36;100.00;100957.98;107157;1282;73228;-84
2023/06/01 03:30:09;;;;;;;9.40;2.30;;;;;;;18.44;100.00;100957.88;107159;1281;61745;-83
2023/06/01 03:32:42;;;;;;;8.00;2.20;;;;;;;18.54;100.00;100958.28;107233;1281;60221;-84
2023/06/01 03:35:09;;;;;;;13.30;2.70;;;;;;;18.70;100.00;100958.66;107221;1282;74481;-85
2023/06/01 03:37:36;;;;;;;5.60;2.20;;;;;;;18.96;100.00;100959.17;107180;1282;74260;-84
2023/06/01 03:40:11;;;;;;;7.00;2.40;;;;;;;19.24;100.00;100960.16;107176;1282;70717;-83
2023/06/01 03:42:47;;;;;;;7.10;2.10;;;;;;;19.83;99.54;100956.55;107167;1282;60267;-84
2023/06/01 03:45:15;;;;;;;11.50;2.80;;;;;;;20.46;97.99;100955.84;107166;1282;61333;-84
2023/06/01 03:47:41;;;;;;;8.20;2.30;;;;;;;20.67;92.60;100964.42;107180;1282;74386;-85
2023/06/01 03:50:08;;;;;;;9.70;2.40;;;;;;;20.47;91.12;100963.53;107233;1281;58221;-84
2023/06/01 03:52:35;;;;;;;5.80;2.40;;;;;;;20.33;91.07;100966.92;107183;1281;73408;-85
2023/06/01 03:55:02;;;;;;;6.50;2.50;;;;;;;20.64;91.83;100973.69;106945;1282;58292;-84
2023/06/01 03:57:28;;;;;;;7.60;2.60;;;;;;;21.03;88.43;100971.77;107154;1281;60964;-85
2023/06/01 03:59:54;;;;;;;8.10;2.10;;;;;;;21.28;86.38;100973.84;107174;1282;58265;-85
2023/06/01 04:02:20;;;;;;;7.30;1.90;;;;;;;21.71;85.58;100973.34;107157;1282;58220;-85
2023/06/01 04:04:46;;;;;;;4.90;1.70;;;;;;;22.25;82.74;100976.83;107195;1282;58230;-85
2023/06/01 04:07:14;;;;;;;6.10;2.70;;;;;;;22.43;79.06;100978.40;106877;1281;59216;-85
2023/06/01 04:09:41;;;;;;;10.20;2.20;;;;;;;22.56;77.57;100978.91;107245;1282;58254;-83
2023/06/01 04:12:06;;;;;;;5.30;2.20;;;;;;;22.69;76.38;100979.13;107232;1282;58331;-83
2023/06/01 04:14:32;;;;;;;6.60;2.00;;;;;;;23.05;75.08;100981.70;107204;1282;58279;-83
2023/06/01 04:16:58;;;;;;;5.10;2.00;;;;;;;23.45;73.84;100981.41;107211;1281;58340;-82
2023/06/01 04:19:23;;;;;;;4.20;2.00;;;;;;;23.68;70.10;100980.96;106878;1282;58362;-84
2023/06/01 04:21:49;;;;;;;3.80;1.80;;;;;;;23.50;69.27;100984.95;107267;1281;58246;-84
2023/06/01 04:24:15;;;;;;;8.50;2.00;;;;;;;23.66;69.21;100978.40;107194;1282;74231;-85
2023/06/01 04:26:41;;;;;;;5.20;2.00;;;;;;;24.00;68.51;100975.46;107199;1282;58274;-86
2023/06/01 04:29:08;;;;;;;7.30;2.00;;;;;;;24.28;67.47;100977.75;106821;1283;58389;-85
2023/06/01 04:31:34;;;;;;;3.40;1.90;;;;;;;24.61;65.59;100984.35;107228;1282;58260;-85
2023/06/01 04:34:01;;;;;;;3.90;1.90;;;;;;;24.77;64.36;100987.39;107189;1282;58264;-86
2023/06/01 04:36:29;;;;;;;9.20;2.20;;;;;;;25.08;64.56;100987.08;107216;1282;58213;-85
2023/06/01 04:38:55;;;;;;;4.70;1.60;;;;;;;25.59;63.55;100989.63;106864;1283;73411;-85
2023/06/01 04:41:21;;;;;;;7.80;1.80;;;;;;;25.87;61.25;100991.29;107190;1281;58178;-86
2023/06/01 04:43:53;;;;;;;3.70;1.60;;;;;;;26.07;60.23;100988.19;106869;1283;58331;-86
2023/06/01 04:46:24;;;;;;;8.30;1.70;;;;;;;26.24;59.54;100991.70;107210;1282;74852;-85
2023/06/01 04:48:55;;;;;;;9.20;1.70;;;;;;;26.33;58.64;100992.21;107233;1282;73853;-85
2023/06/01 04:51:21;;;;;;;7.60;1.90;;;;;;;26.24;56.89;100995.65;107196;1281;72695;-85
2023/06/01 04:53:51;;;;;;;7.50;2.10;;;;;;;26.01;56.56;100991.36;107169;1282;58191;-85
2023/06/01 04:56:17;;;;;;;6.20;1.80;;;;;;;26.03;55.45;100988.24;106887;1283;58568;-83
2023/06/01 04:58:44;;;;;;;5.40;1.80;;;;;;;25.97;54.07;100989.66;107201;1282;74634;-84
2023/06/01 05:01:13;;;;;;;4.50;1.60;;;;;;;26.02;53.98;100987.20;107207;1282;73186;-84
2023/06/01 05:03:38;;;;;;;6.50;2.00;;;;;;;26.24;53.22;100985.46;106836;1285;71817;-84
2023/06/01 05:06:04;;;;;;;11.30;1.80;;;;;;;26.10;52.05;100991.64;106809;1285;58657;-84
2023/06/01 05:08:31;;;;;;;8.80;1.80;;;;;;;26.11;52.13;100991.36;106829;1285;58250;-84
2023/06/01 05:10:56;;;;;;;3.60;1.70;;;;;;;26.54;52.68;100990.70;106851;1285;58484;-84
2023/06/01 05:13:22;;;;;;;2.90;1.80;;;;;;;27.09;51.02;100993.36;106862;1285;58894;-84
2023/06/01 05:15:47;;;;;;;6.50;2.00;;;;;;;27.00;50.17;100992.61;106571;1285;58551;-84
2023/06/01 05:18:13;;;;;;;12.00;2.30;;;;;;;26.85;48.81;100991.66;106844;1286;60071;-84
2023/06/01 05:20:38;;;;;;;3.50;1.70;;;;;;;26.77;48.68;100995.10;106491;1285;58649;-82
2023/06/01 05:23:04;;;;;;;3.50;2.00;;;;;;;26.52;47.80;100992.70;106868;1285;58380;-84
2023/06/01 05:25:29;;;;;;;4.00;1.60;;;;;;;26.04;48.52;100992.67;106698;1286;58264;-83
2023/06/01 05:27:55;;;;;;;13.90;2.20;;;;;;;26.07;50.80;100998.30;106862;1285;58431;-83
2023/06/01 05:30:20;;;;;;;2.80;1.40;;;;;;;26.58;50.77;100995.59;106554;1286;74617;-82
2023/06/01 05:32:46;;;;;;;3.00;1.70;;;;;;;27.28;50.33;100992.30;106843;1285;58261;-83
2023/06/01 05:35:11;;;;;;;5.50;1.60;;;;;;;27.52;48.51;100996.58;107045;1282;58724;-85
2023/06/01 05:37:37;;;;;;;7.20;2.00;;;;;;;27.33;47.71;100994.13;107265;1281;58214;-86
2023/06/01 05:40:06;;;;;;;2.50;1.60;;;;;;;27.26;47.89;100997.46;106920;1283;58340;-85
2023/06/01 05:42:32;;;;;;;7.30;2.10;;;;;;;27.62;47.79;100994.88;107082;1283;74755;-85
2023/06/01 05:44:58;;;;;;;10.10;1.80;;;;;;;28.00;48.03;100998.38;107236;1281;58290;-84
2023/06/01 05:47:23;;;;;;;6.50;1.70;;;;;;;28.48;46.06;101000.21;107231;1281;58632;-85
2023/06/01 05:49:49;;;;;;;2.80;1.80;;;;;;;28.31;44.85;100998.41;107235;1282;58266;-85
2023/06/01 05:52:14;;;;;;;8.50;1.80;;;;;;;28.20;44.76;101002.42;106904;1283;58252;-85
2023/06/01 05:54:40;;;;;;;7.70;1.60;;;;;;;28.14;44.33;101004.00;107166;1281;73528;-86
2023/06/01 05:57:06;;;;;;;4.00;1.60;;;;;;;28.03;43.89;101006.83;107174;1282;58447;-85
2023/06/01 05:59:32;;;;;;;6.40;1.60;;;;;;;27.91;43.79;101009.61;106865;1281;58572;-85
2023/06/01 06:01:57;;;;;;;15.60;1.80;;;;;;;27.81;43.70;101014.16;107227;1282;58153;-84
2023/06/01 06:04:23;;;;;;;14.80;2.10;;;;;;;27.69;44.08;101010.52;107194;1282;58295;-84
2023/06/01 06:06:48;;;;;;;6.60;1.90;;;;;;;27.61;44.51;101009.27;107203;1282;58216;-85
2023/06/01 06:09:15;;;;;;;5.70;1.60;;;;;;;27.59;44.23;101010.01;107211;1281;60040;-85
2023/06/01 06:11:53;;;;;;;6.30;1.70;;;;;;;27.21;44.00;101008.28;107196;1282;74511;-86
2023/06/01 06:14:18;;;;;;;7.10;1.70;;;;;;;26.94;44.78;101007.83;106706;1286;74605;-83
2023/06/01 06:16:44;;;;;;;4.10;1.50;;;;;;;26.85;44.31;101006.77;106578;1285;59163;-83
2023/06/01 06:19:10;;;;;;;4.20;1.30;;;;;;;26.47;44.84;101007.66;106674;1285;58756;-83
2023/06/01 06:21:37;;;;;;;6.20;1.50;;;;;;;26.08;44.47;101011.48;106454;1285;58255;-83
2023/06/01 06:24:03;;;;;;;3.10;1.60;;;;;;;25.64;44.58;101011.55;106701;1285;58333;-83
2023/06/01 06:26:29;;;;;;;4.70;2.00;;;;;;;25.45;46.03;101011.42;106714;1285;58821;-83
2023/06/01 06:28:55;;;;;;;5.90;1.60;;;;;;;25.92;45.89;101007.02;106416;1285;58472;-83
2023/06/01 06:31:21;;;;;;;2.70;1.60;;;;;;;26.69;45.61;101008.81;106754;1285;58445;-83
2023/06/01 06:33:47;;;;;;;8.00;1.70;;;;;;;27.75;45.53;101008.09;106402;1285;74900;-84
2023/06/01 06:36:12;;;;;;;8.00;1.50;;;;;;;28.70;44.43;101000.64;106738;1285;58427;-84
2023/06/01 06:38:38;;;;;;;1.70;1.10;;;;;;;29.59;43.69;100998.96;106663;1285;58351;-84
2023/06/01 06:41:03;;;;;;;6.10;1.60;;;;;;;30.15;41.33;101001.62;106694;1285;58430;-85
2023/06/01 06:43:29;;;;;;;7.40;2.00;;;;;;;30.39;40.25;101000.49;106710;1286;58627;-84
2023/06/01 06:45:55;;;;;;;6.60;2.00;;;;;;;30.63;40.00;100994.77;107121;1281;58404;-84
2023/06/01 06:48:20;;;;;;;5.10;1.90;;;;;;;31.07;39.24;100997.20;107213;1282;58252;-85
2023/06/01 06:50:46;;;;;;;6.30;2.30;;;;;;;31.34;38.39;100995.27;107259;1282;58409;-85
2023/06/01 06:53:11;;;;;;;3.70;1.80;;;;;;;31.04;37.57;100993.52;106891;1283;58252;-84
2023/06/01 06:55:37;;;;;;;15.80;2.10;;;;;;;30.79;37.90;100994.02;107198;1282;58329;-84
2023/06/01 06:58:02;;;;;;;3.00;1.50;;;;;;;30.90;37.77;100994.65;107217;1282;58277;-85
2023/06/01 07:00:28;;;;;;;7.60;1.90;;;;;;;31.38;37.81;100997.42;107190;1282;60130;-84
2023/06/01 07:02:55;;;;;;;7.90;1.80;;;;;;;31.85;36.86;100995.98;107143;1283;58254;-84
2023/06/01 07:05:21;;;;;;;8.00;1.60;;;;;;;32.03;35.92;100998.00;106761;1282;58247;-85
2023/06/01 07:07:46;;;;;;;8.50;1.60;;;;;;;32.04;35.23;101004.21;106895;1283;58337;-84
2023/06/01 07:10:12;;;;;;;6.30;1.50;;;;;;;31.96;35.16;101000.55;107209;1282;58492;-85
2023/06/01 07:12:38;;;;;;;6.00;2.00;;;;;;;32.05;34.34;101000.08;107101;1283;58245;-83
2023/06/01 07:15:05;;;;;;;5.20;1.70;;;;;;;32.38;34.67;101001.91;107161;1281;58680;-83
2023/06/01 07:17:30;;;;;;;4.20;1.70;;;;;;;32.33;33.64;100998.73;106753;1283;73514;-84
2023/06/01 07:19:56;;;;;;;6.90;1.70;;;;;;;32.48;34.38;100999.77;107196;1282;59066;-84
2023/06/01 07:22:22;;;;;;;7.00;1.70;;;;;;;32.75;34.59;100996.38;107188;1282;59150;-84
2023/06/01 07:24:47;;;;;;;3.10;1.90;;;;;;;33.10;33.70;100994.07;107215;1282;59085;-84
2023/06/01 07:27:14;;;;;;;2.20;1.60;;;;;;;33.16;33.58;100993.09;107171;1281;59128;-83
2023/06/01 07:29:41;;;;;;;5.80;1.60;;;;;;;33.14;33.36;100996.94;107179;1282;59040;-83
2023/06/01 07:32:06;;;;;;;6.20;1.70;;;;;;;32.84;32.99;100993.33;107151;1282;59033;-84
2023/06/01 07:34:35;;;;;;;4.30;1.70;;;;;;;32.91;32.89;100993.70;107219;1281;58947;-83
2023/06/01 07:37:01;;;;;;;5.50;2.40;;;;;;;32.67;33.12;100990.81;107212;1282;75421;-84
2023/06/01 07:39:27;;;;;;;2.10;1.40;;;;;;;32.81;32.85;100987.44;107174;1282;59050;-83
2023/06/01 07:41:53;;;;;;;7.20;1.60;;;;;;;32.37;32.51;100990.52;106869;1281;59549;-84
2023/06/01 07:44:20;;;;;;;7.60;1.70;;;;;;;32.67;32.46;100986.59;107171;1282;58982;-84
2023/06/01 07:46:46;;;;;;;6.10;1.70;;;;;;;32.66;32.57;100982.92;107206;1282;59078;-83
2023/06/01 07:49:15;;;;;;;5.70;1.60;;;;;;;32.84;32.30;100979.69;107228;1282;59087;-82
2023/06/01 07:51:44;;;;;;;5.90;1.90;;;;;;;32.57;32.63;100983.98;107154;1282;74662;-82
2023/06/01 07:54:10;;;;;;;6.20;1.90;;;;;;;32.61;32.45;100985.57;107213;1282;73448;-82
2023/06/01 07:56:36;;;;;;;2.50;1.70;;;;;;;32.70;31.10;100980.61;107175;1281;59052;-83
2023/06/01 07:59:02;;;;;;;3.60;2.20;;;;;;;32.26;31.09;100985.33;106868;1282;59290;-83
2023/06/01 08:01:28;;;;;;;7.30;2.80;;;;;;;32.00;31.17;100989.47;106859;1282;59046;-82
2023/06/01 08:03:55;;;;;;;8.50;3.30;;;;;;;31.64;31.23;100991.08;107210;1282;59114;-82
2023/06/01 08:06:22;;;;;;;5.30;2.80;;;;;;;32.07;32.34;100990.17;107165;1281;59344;-83
2023/06/01 08:08:49;;;;;;;3.90;1.50;;;;;;;32.93;31.10;100986.21;106852;1281;59158;-82
2023/06/01 08:11:15;;;;;;;14.10;2.20;;;;;;;32.84;31.13;100983.91;107240;1281;58990;-82
2023/06/01 08:13:41;;;;;;;5.00;1.80;;;;;;;32.88;30.39;100986.14;107217;1282;59006;-82
2023/06/01 08:16:07;;;;;;;13.30;2.00;;;;;;;32.69;30.97;100980.21;107202;1282;59865;-82
2023/06/01 08:18:33;;;;;;;9.80;2.80;;;;;;;33.08;30.66;100975.39;107182;1282;59072;-82
2023/06/01 08:21:00;;;;;;;6.50;2.40;;;;;;;33.34;30.20;100973.30;107242;1281;59028;-83
2023/06/01 08:23:26;;;;;;;2.90;1.80;;;;;;;33.18;30.04;100968.90;107199;1282;59059;-83
2023/06/01 08:25:52;;;;;;;3.20;1.90;;;;;;;33.23;30.17;100971.27;107213;1282;58919;-83
2023/06/01 08:28:17;;;;;;;3.90;1.70;;;;;;;33.43;30.61;100968.86;107251;1282;59044;-82
2023/06/01 08:30:43;;;;;;;4.30;1.50;;;;;;;33.73;29.46;100960.86;107269;1281;59114;-82
2023/06/01 08:33:08;;;;;;;9.10;1.80;;;;;;;33.53;29.69;100960.34;107222;1282;59069;-83
2023/06/01 08:35:34;;;;;;;8.00;2.00;;;;;;;33.13;29.67;100959.64;107116;1283;59048;-82
2023/06/01 08:38:03;;;;;;;16.00;1.80;;;;;;;32.78;30.68;100963.27;107222;1282;59383;-79
2023/06/01 08:40:31;;;;;;;11.10;2.20;;;;;;;32.96;30.02;100962.91;107177;1282;73758;-79
2023/06/01 08:43:18;;;;;;;6.60;1.70;;;;;;;33.29;30.38;100961.09;106839;1283;59553;-78
2023/06/01 08:45:45;;;;;;;2.00;1.50;;;;;;;33.72;29.49;100959.83;107200;1283;61204;-78
2023/06/01 08:48:17;;;;;;;4.70;1.60;;;;;;;33.94;30.04;100953.69;106547;1283;59349;-78
2023/06/01 08:50:50;;;;;;;4.00;1.70;;;;;;;34.46;29.81;100950.02;107237;1282;74384;-78
2023/06/01 08:53:18;;;;;;;8.20;1.80;;;;;;;34.53;29.08;100951.08;106756;1283;72694;-78
2023/06/01 08:55:55;;;;;;;3.70;1.80;;;;;;;34.50;28.72;100950.55;107192;1282;60141;-78
2023/06/01 08:58:21;;;;;;;6.10;1.70;;;;;;;33.79;28.02;100948.97;107172;1282;60547;-78
2023/06/01 09:00:51;;;;;;;2.90;1.70;;;;;;;33.53;28.71;100948.59;107232;1282;59082;-78
2023/06/01 09:03:17;;;;;;;7.60;2.00;;;;;;;33.95;28.64;100952.55;106876;1283;73429;-78
2023/06/01 09:05:42;;;;;;;2.90;1.50;;;;;;;34.54;29.07;100953.08;107192;1282;59077;-78
2023/06/01 09:08:09;;;;;;;3.60;1.80;;;;;;;34.50;27.42;100952.70;107203;1282;58939;-78
2023/06/01 09:10:36;;;;;;;5.70;1.70;;;;;;;34.13;28.46;100951.86;106925;1281;59409;-78
2023/06/01 09:13:01;;;;;;;9.20;1.70;;;;;;;34.32;27.57;100948.24;107215;1282;59052;-78
2023/06/01 09:15:29;;;;;;;4.40;1.70;;;;;;;34.18;27.82;100952.38;107226;1281;59063;-78
2023/06/01 09:18:06;;;;;;;6.20;1.70;;;;;;;33.90;28.54;100948.19;107208;1283;59042;-78
2023/06/01 09:20:32;;;;;;;9.20;1.80;;;;;;;33.58;28.52;100952.02;107162;1283;61220;-77
2023/06/01 09:22:57;;;;;;;3.10;1.50;;;;;;;33.14;28.66;100949.13;107182;1283;59396;-77
2023/06/01 09:25:29;;;;;;;4.60;1.40;;;;;;;33.42;29.06;100947.14;107221;1282;59380;-77
2023/06/01 09:27:56;;;;;;;5.00;1.40;;;;;;;33.55;28.25;100948.73;106772;1283;72683;-77
2023/06/01 09:30:24;;;;;;;5.70;1.60;;;;;;;32.72;28.27;100952.44;107175;1283;72428;-77
2023/06/01 09:33:06;;;;;;;5.90;1.40;;;;;;;32.31;29.44;100955.20;107182;1282;60147;-77
2023/06/01 09:35:40;;;;;;;3.60;1.40;;;;;;;32.44;30.00;100950.73;107214;1282;60980;-77
2023/06/01 09:38:06;;;;;;;3.10;1.60;;;;;;;32.81;29.44;100951.85;107213;1282;75314;-77
2023/06/01 09:40:33;;;;;;;3.70;1.30;;;;;;;32.37;29.86;100950.11;107235;1282;59044;-78
2023/06/01 09:42:59;;;;;;;3.60;1.60;;;;;;;32.56;30.57;100944.27;107219;1283;73405;-77
2023/06/01 09:45:25;;;;;;;3.60;1.70;;;;;;;32.85;30.16;100946.10;107185;1282;58958;-78
2023/06/01 09:47:52;;;;;;;9.00;1.60;;;;;;;32.32;28.99;100940.53;107168;1282;58977;-77
2023/06/01 09:50:37;;;;;;;6.70;1.90;;;;;;;31.69;30.41;100943.70;107199;1282;58981;-77
2023/06/01 09:53:04;;;;;;;5.30;1.30;;;;;;;31.61;30.32;100935.02;107233;1282;73230;-77
2023/06/01 09:55:30;;;;;;;5.50;1.70;;;;;;;31.14;30.59;100937.88;107193;1283;73983;-77
2023/06/01 09:58:21;;;;;;;5.00;1.80;;;;;;;30.60;30.54;100933.94;107162;1283;59111;-77
2023/06/01 10:00:49;;;;;;;6.10;1.30;;;;;;;30.40;31.18;100932.86;107173;1283;60291;-77
2023/06/01 10:03:15;;;;;;;4.70;1.50;;;;;;;30.26;30.88;100931.34;107119;1283;75614;-77
2023/06/01 10:05:45;;;;;;;5.30;1.60;;;;;;;30.51;32.01;100931.19;106857;1282;73495;-77
2023/06/01 10:08:17;;;;;;;3.10;1.50;;;;;;;30.58;32.19;100930.91;107087;1283;73652;-76
2023/06/01 10:10:45;;;;;;;7.20;1.60;;;;;;;30.47;31.80;100931.33;107156;1282;59285;-76
2023/06/01 10:13:12;;;;;;;4.10;1.40;;;;;;;30.01;32.12;100928.43;107201;1283;61114;-77
2023/06/01 10:15:38;;;;;;;3.80;2.00;;;;;;;29.90;32.63;100929.44;107236;1283;75398;-77
2023/06/01 10:18:05;;;;;;;6.60;1.60;;;;;;;29.91;33.07;100931.67;106921;1283;59057;-77
2023/06/01 10:20:35;;;;;;;2.60;1.50;;;;;;;29.99;32.52;100932.29;107179;1283;59076;-77
2023/06/01 10:23:01;;;;;;;3.80;1.70;;;;;;;30.01;32.29;100932.38;106737;1285;60700;-76
2023/06/01 10:25:37;;;;;;;3.80;1.60;;;;;;;30.13;32.65;100922.95;107197;1282;59013;-77
2023/06/01 10:28:09;;;;;;;5.90;1.40;;;;;;;30.02;32.35;100924.23;107200;1282;74802;-77
2023/06/01 10:30:35;;;;;;;3.30;1.60;;;;;;;29.82;32.33;100924.61;107094;1283;73337;-77
2023/06/01 10:33:01;;;;;;;4.80;1.70;;;;;;;29.64;32.67;100924.36;107187;1283;59097;-76
2023/06/01 10:35:26;;;;;;;5.90;1.70;;;;;;;29.33;32.22;100920.38;107191;1282;58984;-77
2023/06/01 10:38:07;;;;;;;4.00;1.50;;;;;;;29.30;32.15;100920.80;107205;1282;59042;-76
2023/06/01 10:40:39;;;;;;;2.10;1.40;;;;;;;29.26;32.70;100916.95;107183;1282;73887;-76
2023/06/01 10:43:06;;;;;;;;;;;;;;;29.52;33.06;100917.46;107237;1282;74155;-77
2023/06/01 10:45:40;;;;;;;6.00;1.60;;;;;;;29.57;32.25;100917.37;107145;1282;73324;-79
2023/06/01 10:48:11;;;;;;;5.80;1.60;;;;;;;29.45;33.15;100909.70;107211;1283;59001;-79
2023/06/01 10:50:41;;;;;;;9.50;2.00;;;;;;;29.48;33.33;100910.52;106544;1283;60070;-81
2023/06/01 10:53:25;;;;;;;7.90;1.60;;;;;;;29.81;33.65;100906.73;106875;1283;75425;-81
2023/06/01 10:56:22;;;;;;;4.70;1.60;;;;;;;30.21;33.64;100906.50;107227;1283;74118;-80
2023/06/01 10:59:06;;;;;;;3.30;1.70;;;;;;;30.65;32.47;100900.75;107151;1282;73634;-79
2023/06/01 11:01:34;;;;;;;5.00;1.60;;;;;;;31.04;32.66;100901.02;107201;1283;60779;-79
2023/06/01 11:03:59;;;;;;;7.50;1.40;;;;;;;31.03;31.87;100895.45;107257;1283;61370;-80
2023/06/01 11:06:28;;;;;;;7.90;1.80;;;;;;;31.15;31.83;100889.11;107195;1282;59018;-78
2023/06/01 11:08:57;;;;;;;2.20;1.60;;;;;;;31.27;31.61;100883.66;107176;1282;73617;-78
2023/06/01 11:11:24;;;;;;;6.10;1.40;;;;;;;30.98;31.80;100881.59;106713;1286;72049;-78
2023/06/01 11:14:11;;;;;;;3.90;1.60;;;;;;;30.46;31.94;100879.42;106693;1285;61430;-77
2023/06/01 11:16:37;;;;;;;3.60;1.60;;;;;;;30.19;32.50;100877.48;106690;1286;61239;-78
2023/06/01 11:19:06;;;;;;;4.50;1.50;;;;;;;29.76;32.32;100880.50;106453;1285;59181;-77